sensor_id;sensor_type;location;lat;lon;timestamp;P1;durP1;ratioP1;P2;durP2;ratioP2
74908;SDS011;63468;52.058;4.824;2023-04-27T00:02:06;16.25;;;9.00;;
74908;SDS011;63468;52.058;4.824;2023-04-27T00:04:31;20.08;;;8.57;;
74908;SDS011;63468;52.058;4.824;2023-04-27T00:06:57;19.02;;;8.88;;
74908;SDS011;63468;52.058;4.824;2023-04-27T00:09:22;15.02;;;8.25;;
74908;SDS011;63468;52.058;4.824;2023-04-27T00:11:47;18.67;;;8.65;;
74908;SDS011;63468;52.058;4.824;2023-04-27T00:14:13;15.45;;;8.80;;
74908;SDS011;63468;52.058;4.824;2023-04-27T00:16:38;16.63;;;8.20;;
74908;SDS011;63468;52.058;4.824;2023-04-27T00:19:03;18.08;;;9.00;;
74908;SDS011;63468;52.058;4.824;2023-04-27T00:21:29;19.15;;;8.90;;
74908;SDS011;63468;52.058;4.824;2023-04-27T00:23:54;17.65;;;8.77;;
74908;SDS011;63468;52.058;4.824;2023-04-27T00:26:19;14.88;;;8.25;;
74908;SDS011;63468;52.058;4.824;2023-04-27T00:28:46;17.85;;;8.40;;
74908;SDS011;63468;52.058;4.824;2023-04-27T00:31:11;16.42;;;9.18;;
74908;SDS011;63468;52.058;4.824;2023-04-27T00:33:37;15.77;;;7.97;;
74908;SDS011;63468;52.058;4.824;2023-04-27T00:36:02;17.73;;;8.68;;
74908;SDS011;63468;52.058;4.824;2023-04-27T00:38:28;20.00;;;9.15;;
74908;SDS011;63468;52.058;4.824;2023-04-27T00:41:03;18.02;;;9.43;;
74908;SDS011;63468;52.058;4.824;2023-04-27T00:43:29;18.55;;;8.85;;
74908;SDS011;63468;52.058;4.824;2023-04-27T00:45:55;16.58;;;9.13;;
74908;SDS011;63468;52.058;4.824;2023-04-27T00:48:20;19.13;;;8.55;;
74908;SDS011;63468;52.058;4.824;2023-04-27T00:50:46;15.35;;;9.20;;
74908;SDS011;63468;52.058;4.824;2023-04-27T00:53:11;15.10;;;9.15;;
74908;SDS011;63468;52.058;4.824;2023-04-27T00:55:37;19.08;;;10.00;;
74908;SDS011;63468;52.058;4.824;2023-04-27T00:58:02;19.85;;;10.07;;
74908;SDS011;63468;52.058;4.824;2023-04-27T01:00:27;21.65;;;11.23;;
74908;SDS011;63468;52.058;4.824;2023-04-27T01:02:53;16.42;;;9.65;;
74908;SDS011;63468;52.058;4.824;2023-04-27T01:05:19;15.18;;;8.88;;
74908;SDS011;63468;52.058;4.824;2023-04-27T01:07:44;17.50;;;10.00;;
74908;SDS011;63468;52.058;4.824;2023-04-27T01:10:10;20.15;;;10.40;;
74908;SDS011;63468;52.058;4.824;2023-04-27T01:12:35;16.20;;;9.60;;
74908;SDS011;63468;52.058;4.824;2023-04-27T01:15:01;17.38;;;9.48;;
74908;SDS011;63468;52.058;4.824;2023-04-27T01:17:27;17.67;;;10.15;;
74908;SDS011;63468;52.058;4.824;2023-04-27T01:19:52;20.55;;;9.70;;
74908;SDS011;63468;52.058;4.824;2023-04-27T01:22:19;15.52;;;9.25;;
74908;SDS011;63468;52.058;4.824;2023-04-27T01:24:45;20.77;;;9.40;;
74908;SDS011;63468;52.058;4.824;2023-04-27T01:27:11;13.02;;;7.93;;
74908;SDS011;63468;52.058;4.824;2023-04-27T01:29:37;14.75;;;7.38;;
74908;SDS011;63468;52.058;4.824;2023-04-27T01:32:02;14.00;;;7.43;;
74908;SDS011;63468;52.058;4.824;2023-04-27T01:34:28;15.05;;;7.60;;
74908;SDS011;63468;52.058;4.824;2023-04-27T01:36:53;11.90;;;6.90;;
74908;SDS011;63468;52.058;4.824;2023-04-27T01:39:19;12.77;;;6.50;;
74908;SDS011;63468;52.058;4.824;2023-04-27T01:41:44;12.73;;;6.85;;
74908;SDS011;63468;52.058;4.824;2023-04-27T01:44:09;11.77;;;6.55;;
74908;SDS011;63468;52.058;4.824;2023-04-27T01:46:35;12.43;;;7.18;;
74908;SDS011;63468;52.058;4.824;2023-04-27T01:49:01;12.80;;;7.28;;
74908;SDS011;63468;52.058;4.824;2023-04-27T01:51:26;13.75;;;6.97;;
74908;SDS011;63468;52.058;4.824;2023-04-27T01:53:51;12.95;;;7.78;;
74908;SDS011;63468;52.058;4.824;2023-04-27T01:56:17;15.27;;;8.00;;
74908;SDS011;63468;52.058;4.824;2023-04-27T01:58:42;17.42;;;7.47;;
74908;SDS011;63468;52.058;4.824;2023-04-27T02:01:07;14.05;;;7.68;;
74908;SDS011;63468;52.058;4.824;2023-04-27T02:03:33;14.82;;;8.75;;
74908;SDS011;63468;52.058;4.824;2023-04-27T02:05:58;15.45;;;8.45;;
74908;SDS011;63468;52.058;4.824;2023-04-27T02:08:23;16.20;;;7.70;;
74908;SDS011;63468;52.058;4.824;2023-04-27T02:10:49;16.30;;;8.05;;
74908;SDS011;63468;52.058;4.824;2023-04-27T02:13:14;18.88;;;8.75;;
74908;SDS011;63468;52.058;4.824;2023-04-27T02:15:39;13.00;;;7.55;;
74908;SDS011;63468;52.058;4.824;2023-04-27T02:18:05;16.67;;;8.85;;
74908;SDS011;63468;52.058;4.824;2023-04-27T02:20:30;17.30;;;7.97;;
74908;SDS011;63468;52.058;4.824;2023-04-27T02:22:56;15.10;;;8.20;;
74908;SDS011;63468;52.058;4.824;2023-04-27T02:25:22;17.77;;;8.88;;
74908;SDS011;63468;52.058;4.824;2023-04-27T02:27:47;15.27;;;9.50;;
74908;SDS011;63468;52.058;4.824;2023-04-27T02:30:13;16.05;;;8.15;;
74908;SDS011;63468;52.058;4.824;2023-04-27T02:32:38;13.93;;;8.23;;
74908;SDS011;63468;52.058;4.824;2023-04-27T02:35:05;13.88;;;8.20;;
74908;SDS011;63468;52.058;4.824;2023-04-27T02:37:31;13.80;;;8.18;;
74908;SDS011;63468;52.058;4.824;2023-04-27T02:39:57;17.92;;;8.70;;
74908;SDS011;63468;52.058;4.824;2023-04-27T02:42:23;15.85;;;8.55;;
74908;SDS011;63468;52.058;4.824;2023-04-27T02:44:48;14.73;;;8.18;;
74908;SDS011;63468;52.058;4.824;2023-04-27T02:47:14;16.50;;;8.32;;
74908;SDS011;63468;52.058;4.824;2023-04-27T02:49:39;15.18;;;8.30;;
74908;SDS011;63468;52.058;4.824;2023-04-27T02:52:05;15.50;;;9.15;;
74908;SDS011;63468;52.058;4.824;2023-04-27T02:54:30;17.40;;;8.38;;
74908;SDS011;63468;52.058;4.824;2023-04-27T02:56:56;16.13;;;8.75;;
74908;SDS011;63468;52.058;4.824;2023-04-27T02:59:22;15.45;;;9.35;;
74908;SDS011;63468;52.058;4.824;2023-04-27T03:01:47;17.15;;;9.50;;
74908;SDS011;63468;52.058;4.824;2023-04-27T03:04:13;21.67;;;9.90;;
74908;SDS011;63468;52.058;4.824;2023-04-27T03:06:42;14.73;;;8.32;;
74908;SDS011;63468;52.058;4.824;2023-04-27T03:09:10;19.25;;;9.90;;
74908;SDS011;63468;52.058;4.824;2023-04-27T03:11:36;16.77;;;8.70;;
74908;SDS011;63468;52.058;4.824;2023-04-27T03:14:02;18.15;;;8.52;;
74908;SDS011;63468;52.058;4.824;2023-04-27T03:16:30;14.85;;;9.55;;
74908;SDS011;63468;52.058;4.824;2023-04-27T03:18:58;20.13;;;9.95;;
74908;SDS011;63468;52.058;4.824;2023-04-27T03:21:23;16.63;;;9.43;;
74908;SDS011;63468;52.058;4.824;2023-04-27T03:23:48;14.18;;;8.70;;
74908;SDS011;63468;52.058;4.824;2023-04-27T03:26:14;22.38;;;10.00;;
74908;SDS011;63468;52.058;4.824;2023-04-27T03:28:39;15.48;;;8.77;;
74908;SDS011;63468;52.058;4.824;2023-04-27T03:31:06;14.57;;;9.00;;
74908;SDS011;63468;52.058;4.824;2023-04-27T03:33:35;16.60;;;9.32;;
74908;SDS011;63468;52.058;4.824;2023-04-27T03:36:01;19.20;;;8.23;;
74908;SDS011;63468;52.058;4.824;2023-04-27T03:38:28;15.23;;;8.52;;
74908;SDS011;63468;52.058;4.824;2023-04-27T03:40:54;18.83;;;9.70;;
74908;SDS011;63468;52.058;4.824;2023-04-27T03:43:19;17.45;;;9.55;;
74908;SDS011;63468;52.058;4.824;2023-04-27T03:45:45;17.20;;;9.02;;
74908;SDS011;63468;52.058;4.824;2023-04-27T03:48:11;18.27;;;9.45;;
74908;SDS011;63468;52.058;4.824;2023-04-27T03:50:37;18.17;;;9.25;;
74908;SDS011;63468;52.058;4.824;2023-04-27T03:53:02;16.23;;;8.70;;
74908;SDS011;63468;52.058;4.824;2023-04-27T03:55:27;14.48;;;8.93;;
74908;SDS011;63468;52.058;4.824;2023-04-27T03:57:53;15.50;;;8.52;;
74908;SDS011;63468;52.058;4.824;2023-04-27T04:00:18;21.83;;;8.93;;
74908;SDS011;63468;52.058;4.824;2023-04-27T04:02:44;18.00;;;9.13;;
74908;SDS011;63468;52.058;4.824;2023-04-27T04:05:09;15.32;;;8.35;;
74908;SDS011;63468;52.058;4.824;2023-04-27T04:07:36;15.10;;;8.68;;
74908;SDS011;63468;52.058;4.824;2023-04-27T04:10:01;18.38;;;9.43;;
74908;SDS011;63468;52.058;4.824;2023-04-27T04:12:27;18.83;;;8.80;;
74908;SDS011;63468;52.058;4.824;2023-04-27T04:14:52;17.50;;;8.68;;
74908;SDS011;63468;52.058;4.824;2023-04-27T04:17:17;16.95;;;8.60;;
74908;SDS011;63468;52.058;4.824;2023-04-27T04:19:43;17.55;;;8.18;;
74908;SDS011;63468;52.058;4.824;2023-04-27T04:22:08;21.60;;;9.60;;
74908;SDS011;63468;52.058;4.824;2023-04-27T04:24:33;19.42;;;9.00;;
74908;SDS011;63468;52.058;4.824;2023-04-27T04:26:59;18.92;;;8.98;;
74908;SDS011;63468;52.058;4.824;2023-04-27T04:29:24;18.83;;;8.88;;
74908;SDS011;63468;52.058;4.824;2023-04-27T04:31:50;18.05;;;8.27;;
74908;SDS011;63468;52.058;4.824;2023-04-27T04:34:15;17.73;;;8.15;;
74908;SDS011;63468;52.058;4.824;2023-04-27T04:36:41;15.85;;;7.80;;
74908;SDS011;63468;52.058;4.824;2023-04-27T04:39:06;16.55;;;9.05;;
74908;SDS011;63468;52.058;4.824;2023-04-27T04:41:32;15.95;;;9.07;;
74908;SDS011;63468;52.058;4.824;2023-04-27T04:43:57;17.27;;;9.30;;
74908;SDS011;63468;52.058;4.824;2023-04-27T04:46:23;18.20;;;9.15;;
74908;SDS011;63468;52.058;4.824;2023-04-27T04:48:49;15.00;;;8.77;;
74908;SDS011;63468;52.058;4.824;2023-04-27T04:51:15;17.08;;;9.57;;
74908;SDS011;63468;52.058;4.824;2023-04-27T04:53:41;16.70;;;9.25;;
74908;SDS011;63468;52.058;4.824;2023-04-27T04:56:07;15.38;;;8.55;;
74908;SDS011;63468;52.058;4.824;2023-04-27T04:58:38;16.65;;;9.07;;
74908;SDS011;63468;52.058;4.824;2023-04-27T05:01:04;15.23;;;7.88;;
74908;SDS011;63468;52.058;4.824;2023-04-27T05:03:29;13.30;;;7.90;;
74908;SDS011;63468;52.058;4.824;2023-04-27T05:05:55;17.38;;;8.23;;
74908;SDS011;63468;52.058;4.824;2023-04-27T05:08:20;17.48;;;9.25;;
74908;SDS011;63468;52.058;4.824;2023-04-27T05:10:49;15.35;;;8.38;;
74908;SDS011;63468;52.058;4.824;2023-04-27T05:13:15;15.07;;;8.18;;
74908;SDS011;63468;52.058;4.824;2023-04-27T05:15:41;19.35;;;8.32;;
74908;SDS011;63468;52.058;4.824;2023-04-27T05:18:06;17.52;;;8.50;;
74908;SDS011;63468;52.058;4.824;2023-04-27T05:20:34;17.35;;;8.45;;
74908;SDS011;63468;52.058;4.824;2023-04-27T05:23:00;20.60;;;9.00;;
74908;SDS011;63468;52.058;4.824;2023-04-27T05:25:28;20.00;;;8.23;;
74908;SDS011;63468;52.058;4.824;2023-04-27T05:27:54;15.13;;;8.65;;
74908;SDS011;63468;52.058;4.824;2023-04-27T05:30:19;21.52;;;8.38;;
74908;SDS011;63468;52.058;4.824;2023-04-27T05:32:45;17.42;;;8.77;;
74908;SDS011;63468;52.058;4.824;2023-04-27T05:35:11;16.98;;;9.57;;
74908;SDS011;63468;52.058;4.824;2023-04-27T05:37:36;17.58;;;9.52;;
74908;SDS011;63468;52.058;4.824;2023-04-27T05:40:01;17.63;;;10.73;;
74908;SDS011;63468;52.058;4.824;2023-04-27T05:42:30;16.17;;;9.63;;
74908;SDS011;63468;52.058;4.824;2023-04-27T05:44:55;15.93;;;8.23;;
74908;SDS011;63468;52.058;4.824;2023-04-27T05:47:21;15.02;;;8.15;;
74908;SDS011;63468;52.058;4.824;2023-04-27T05:49:50;12.80;;;8.52;;
74908;SDS011;63468;52.058;4.824;2023-04-27T05:52:16;13.50;;;7.43;;
74908;SDS011;63468;52.058;4.824;2023-04-27T05:54:45;15.85;;;8.85;;
74908;SDS011;63468;52.058;4.824;2023-04-27T05:57:13;13.15;;;7.20;;
74908;SDS011;63468;52.058;4.824;2023-04-27T05:59:39;13.43;;;7.35;;
74908;SDS011;63468;52.058;4.824;2023-04-27T06:02:05;15.43;;;8.05;;
74908;SDS011;63468;52.058;4.824;2023-04-27T06:04:30;14.00;;;8.88;;
74908;SDS011;63468;52.058;4.824;2023-04-27T06:06:57;12.90;;;8.40;;
74908;SDS011;63468;52.058;4.824;2023-04-27T06:09:22;11.48;;;8.40;;
74908;SDS011;63468;52.058;4.824;2023-04-27T06:11:48;15.35;;;9.05;;
74908;SDS011;63468;52.058;4.824;2023-04-27T06:14:13;13.68;;;8.95;;
74908;SDS011;63468;52.058;4.824;2023-04-27T06:16:38;15.00;;;9.10;;
74908;SDS011;63468;52.058;4.824;2023-04-27T06:19:04;24.10;;;13.95;;
74908;SDS011;63468;52.058;4.824;2023-04-27T06:21:33;14.02;;;8.15;;
74908;SDS011;63468;52.058;4.824;2023-04-27T06:23:59;13.88;;;8.45;;
74908;SDS011;63468;52.058;4.824;2023-04-27T06:26:25;12.63;;;8.27;;
74908;SDS011;63468;52.058;4.824;2023-04-27T06:28:50;11.65;;;7.80;;
74908;SDS011;63468;52.058;4.824;2023-04-27T06:31:16;14.13;;;7.57;;
74908;SDS011;63468;52.058;4.824;2023-04-27T06:33:41;12.18;;;7.68;;
74908;SDS011;63468;52.058;4.824;2023-04-27T06:36:06;14.18;;;7.45;;
74908;SDS011;63468;52.058;4.824;2023-04-27T06:38:32;11.45;;;8.85;;
74908;SDS011;63468;52.058;4.824;2023-04-27T06:40:57;12.95;;;8.35;;
74908;SDS011;63468;52.058;4.824;2023-04-27T06:43:23;12.93;;;9.07;;
74908;SDS011;63468;52.058;4.824;2023-04-27T06:45:48;11.57;;;8.60;;
74908;SDS011;63468;52.058;4.824;2023-04-27T06:48:14;12.15;;;9.35;;
74908;SDS011;63468;52.058;4.824;2023-04-27T06:50:39;11.52;;;9.05;;
74908;SDS011;63468;52.058;4.824;2023-04-27T06:53:05;12.30;;;9.57;;
74908;SDS011;63468;52.058;4.824;2023-04-27T06:55:30;12.10;;;9.40;;
74908;SDS011;63468;52.058;4.824;2023-04-27T06:57:55;15.65;;;9.35;;
74908;SDS011;63468;52.058;4.824;2023-04-27T07:00:21;13.73;;;9.77;;
74908;SDS011;63468;52.058;4.824;2023-04-27T07:02:46;14.63;;;10.20;;
74908;SDS011;63468;52.058;4.824;2023-04-27T07:05:12;14.10;;;9.95;;
74908;SDS011;63468;52.058;4.824;2023-04-27T07:07:37;15.73;;;9.68;;
74908;SDS011;63468;52.058;4.824;2023-04-27T07:10:02;16.95;;;10.50;;
74908;SDS011;63468;52.058;4.824;2023-04-27T07:12:28;13.43;;;9.73;;
74908;SDS011;63468;52.058;4.824;2023-04-27T07:14:53;14.90;;;9.68;;
74908;SDS011;63468;52.058;4.824;2023-04-27T07:17:19;15.82;;;9.48;;
74908;SDS011;63468;52.058;4.824;2023-04-27T07:19:45;12.65;;;10.30;;
74908;SDS011;63468;52.058;4.824;2023-04-27T07:22:10;14.20;;;9.68;;
74908;SDS011;63468;52.058;4.824;2023-04-27T07:24:36;13.93;;;10.05;;
74908;SDS011;63468;52.058;4.824;2023-04-27T07:27:01;13.93;;;10.30;;
74908;SDS011;63468;52.058;4.824;2023-04-27T07:29:27;12.75;;;9.40;;
74908;SDS011;63468;52.058;4.824;2023-04-27T07:31:53;12.82;;;9.63;;
74908;SDS011;63468;52.058;4.824;2023-04-27T07:34:19;16.63;;;10.05;;
74908;SDS011;63468;52.058;4.824;2023-04-27T07:36:44;16.60;;;10.10;;
74908;SDS011;63468;52.058;4.824;2023-04-27T07:39:10;13.98;;;10.63;;
74908;SDS011;63468;52.058;4.824;2023-04-27T07:41:35;14.95;;;10.40;;
74908;SDS011;63468;52.058;4.824;2023-04-27T07:44:00;14.82;;;9.95;;
74908;SDS011;63468;52.058;4.824;2023-04-27T07:46:26;15.50;;;9.80;;
74908;SDS011;63468;52.058;4.824;2023-04-27T07:48:51;11.65;;;8.88;;
74908;SDS011;63468;52.058;4.824;2023-04-27T07:51:19;12.13;;;9.43;;
74908;SDS011;63468;52.058;4.824;2023-04-27T07:53:45;14.00;;;9.70;;
74908;SDS011;63468;52.058;4.824;2023-04-27T07:56:10;12.27;;;9.10;;
74908;SDS011;63468;52.058;4.824;2023-04-27T07:58:36;11.77;;;9.05;;
74908;SDS011;63468;52.058;4.824;2023-04-27T08:01:02;15.07;;;9.63;;
74908;SDS011;63468;52.058;4.824;2023-04-27T08:03:27;11.77;;;10.07;;
74908;SDS011;63468;52.058;4.824;2023-04-27T08:05:52;12.77;;;9.10;;
74908;SDS011;63468;52.058;4.824;2023-04-27T08:08:18;13.43;;;10.20;;
74908;SDS011;63468;52.058;4.824;2023-04-27T08:10:43;12.60;;;9.35;;
74908;SDS011;63468;52.058;4.824;2023-04-27T08:13:08;10.23;;;8.23;;
74908;SDS011;63468;52.058;4.824;2023-04-27T08:15:34;14.65;;;9.27;;
74908;SDS011;63468;52.058;4.824;2023-04-27T08:18:00;13.43;;;9.73;;
74908;SDS011;63468;52.058;4.824;2023-04-27T08:20:25;13.20;;;9.85;;
74908;SDS011;63468;52.058;4.824;2023-04-27T08:22:50;13.63;;;9.48;;
74908;SDS011;63468;52.058;4.824;2023-04-27T08:25:16;13.15;;;9.35;;
74908;SDS011;63468;52.058;4.824;2023-04-27T08:27:41;12.20;;;9.82;;
74908;SDS011;63468;52.058;4.824;2023-04-27T08:30:07;12.35;;;9.35;;
74908;SDS011;63468;52.058;4.824;2023-04-27T08:32:32;15.70;;;9.82;;
74908;SDS011;63468;52.058;4.824;2023-04-27T08:34:58;12.68;;;9.60;;
74908;SDS011;63468;52.058;4.824;2023-04-27T08:37:23;14.45;;;9.75;;
74908;SDS011;63468;52.058;4.824;2023-04-27T08:39:48;13.52;;;9.68;;
74908;SDS011;63468;52.058;4.824;2023-04-27T08:42:14;13.25;;;9.55;;
74908;SDS011;63468;52.058;4.824;2023-04-27T08:44:40;15.25;;;9.65;;
74908;SDS011;63468;52.058;4.824;2023-04-27T08:47:06;11.70;;;8.90;;
74908;SDS011;63468;52.058;4.824;2023-04-27T08:49:33;14.15;;;9.35;;
74908;SDS011;63468;52.058;4.824;2023-04-27T08:51:58;11.10;;;8.85;;
74908;SDS011;63468;52.058;4.824;2023-04-27T08:54:24;11.80;;;9.05;;
74908;SDS011;63468;52.058;4.824;2023-04-27T08:56:50;10.98;;;9.02;;
74908;SDS011;63468;52.058;4.824;2023-04-27T08:59:16;14.07;;;9.30;;
74908;SDS011;63468;52.058;4.824;2023-04-27T09:01:48;9.63;;;8.30;;
74908;SDS011;63468;52.058;4.824;2023-04-27T09:06:39;12.38;;;8.85;;
74908;SDS011;63468;52.058;4.824;2023-04-27T09:09:04;11.63;;;9.07;;
74908;SDS011;63468;52.058;4.824;2023-04-27T09:11:32;11.27;;;8.55;;
74908;SDS011;63468;52.058;4.824;2023-04-27T09:13:59;12.07;;;8.20;;
74908;SDS011;63468;52.058;4.824;2023-04-27T09:16:26;10.30;;;8.50;;
74908;SDS011;63468;52.058;4.824;2023-04-27T09:18:53;10.30;;;8.77;;
74908;SDS011;63468;52.058;4.824;2023-04-27T09:21:22;13.75;;;8.82;;
74908;SDS011;63468;52.058;4.824;2023-04-27T09:23:51;11.85;;;9.43;;
74908;SDS011;63468;52.058;4.824;2023-04-27T09:26:21;9.85;;;8.85;;
74908;SDS011;63468;52.058;4.824;2023-04-27T09:28:49;10.43;;;9.13;;
74908;SDS011;63468;52.058;4.824;2023-04-27T09:31:15;10.82;;;9.30;;
74908;SDS011;63468;52.058;4.824;2023-04-27T09:33:42;9.93;;;8.90;;
74908;SDS011;63468;52.058;4.824;2023-04-27T09:36:07;10.13;;;9.13;;
74908;SDS011;63468;52.058;4.824;2023-04-27T09:38:33;10.10;;;9.10;;
74908;SDS011;63468;52.058;4.824;2023-04-27T09:40:58;11.77;;;9.00;;
74908;SDS011;63468;52.058;4.824;2023-04-27T09:43:24;10.88;;;9.88;;
74908;SDS011;63468;52.058;4.824;2023-04-27T09:45:51;11.18;;;9.30;;
74908;SDS011;63468;52.058;4.824;2023-04-27T09:48:17;10.20;;;9.20;;
74908;SDS011;63468;52.058;4.824;2023-04-27T09:50:45;11.35;;;9.18;;
74908;SDS011;63468;52.058;4.824;2023-04-27T09:53:11;10.40;;;9.15;;
74908;SDS011;63468;52.058;4.824;2023-04-27T10:04:24;12.38;;;9.30;;
74908;SDS011;63468;52.058;4.824;2023-04-27T10:07:11;11.13;;;9.95;;
74908;SDS011;63468;52.058;4.824;2023-04-27T10:09:49;11.32;;;9.48;;
74908;SDS011;63468;52.058;4.824;2023-04-27T10:12:36;11.63;;;10.33;;
74908;SDS011;63468;52.058;4.824;2023-04-27T10:15:16;11.45;;;9.85;;
74908;SDS011;63468;52.058;4.824;2023-04-27T10:17:48;10.90;;;9.77;;
74908;SDS011;63468;52.058;4.824;2023-04-27T10:20:15;11.05;;;9.85;;
74908;SDS011;63468;52.058;4.824;2023-04-27T10:22:45;10.55;;;9.43;;
74908;SDS011;63468;52.058;4.824;2023-04-27T10:25:12;10.13;;;9.07;;
74908;SDS011;63468;52.058;4.824;2023-04-27T10:27:49;12.52;;;11.23;;
74908;SDS011;63468;52.058;4.824;2023-04-27T10:30:16;11.43;;;10.32;;
74908;SDS011;63468;52.058;4.824;2023-04-27T10:32:49;10.90;;;9.75;;
74908;SDS011;63468;52.058;4.824;2023-04-27T10:35:15;11.80;;;10.18;;
74908;SDS011;63468;52.058;4.824;2023-04-27T10:37:41;12.75;;;9.73;;
74908;SDS011;63468;52.058;4.824;2023-04-27T10:40:07;13.05;;;10.30;;
74908;SDS011;63468;52.058;4.824;2023-04-27T10:42:34;12.20;;;9.80;;
74908;SDS011;63468;52.058;4.824;2023-04-27T10:45:00;10.90;;;9.77;;
74908;SDS011;63468;52.058;4.824;2023-04-27T10:47:34;12.82;;;10.45;;
74908;SDS011;63468;52.058;4.824;2023-04-27T10:50:03;11.98;;;10.48;;
74908;SDS011;63468;52.058;4.824;2023-04-27T10:52:29;12.32;;;10.13;;
74908;SDS011;63468;52.058;4.824;2023-04-27T10:54:55;17.05;;;9.82;;
74908;SDS011;63468;52.058;4.824;2023-04-27T10:57:20;12.68;;;10.10;;
74908;SDS011;63468;52.058;4.824;2023-04-27T10:59:50;11.52;;;9.98;;
74908;SDS011;63468;52.058;4.824;2023-04-27T11:02:23;17.48;;;14.25;;
74908;SDS011;63468;52.058;4.824;2023-04-27T11:04:50;12.02;;;10.55;;
74908;SDS011;63468;52.058;4.824;2023-04-27T11:07:22;11.13;;;10.00;;
74908;SDS011;63468;52.058;4.824;2023-04-27T11:09:51;12.45;;;11.15;;
74908;SDS011;63468;52.058;4.824;2023-04-27T11:12:17;11.73;;;10.52;;
74908;SDS011;63468;52.058;4.824;2023-04-27T11:14:42;14.20;;;10.68;;
74908;SDS011;63468;52.058;4.824;2023-04-27T11:17:08;12.18;;;10.88;;
74908;SDS011;63468;52.058;4.824;2023-04-27T11:19:42;13.45;;;11.05;;
74908;SDS011;63468;52.058;4.824;2023-04-27T11:22:14;11.13;;;9.95;;
74908;SDS011;63468;52.058;4.824;2023-04-27T11:24:50;16.08;;;10.57;;
74908;SDS011;63468;52.058;4.824;2023-04-27T11:27:16;12.38;;;10.40;;
74908;SDS011;63468;52.058;4.824;2023-04-27T11:29:42;14.07;;;11.43;;
74908;SDS011;63468;52.058;4.824;2023-04-27T11:32:07;11.98;;;9.68;;
74908;SDS011;63468;52.058;4.824;2023-04-27T11:34:32;12.55;;;10.77;;
74908;SDS011;63468;52.058;4.824;2023-04-27T11:37:04;11.80;;;10.40;;
74908;SDS011;63468;52.058;4.824;2023-04-27T11:39:34;11.20;;;10.05;;
74908;SDS011;63468;52.058;4.824;2023-04-27T11:44:50;13.43;;;9.85;;
74908;SDS011;63468;52.058;4.824;2023-04-27T11:47:17;11.20;;;9.77;;
74908;SDS011;63468;52.058;4.824;2023-04-27T11:49:45;12.68;;;9.88;;
74908;SDS011;63468;52.058;4.824;2023-04-27T11:52:12;15.15;;;10.68;;
74908;SDS011;63468;52.058;4.824;2023-04-27T11:54:37;11.70;;;10.50;;
74908;SDS011;63468;52.058;4.824;2023-04-27T11:57:03;12.23;;;10.98;;
74908;SDS011;63468;52.058;4.824;2023-04-27T11:59:29;13.80;;;10.93;;
74908;SDS011;63468;52.058;4.824;2023-04-27T12:01:55;13.77;;;10.52;;
74908;SDS011;63468;52.058;4.824;2023-04-27T12:04:20;12.02;;;10.38;;
74908;SDS011;63468;52.058;4.824;2023-04-27T12:06:46;12.93;;;9.55;;
74908;SDS011;63468;52.058;4.824;2023-04-27T12:09:11;12.77;;;10.13;;
74908;SDS011;63468;52.058;4.824;2023-04-27T12:11:36;11.77;;;10.30;;
74908;SDS011;63468;52.058;4.824;2023-04-27T12:14:02;12.25;;;10.77;;
74908;SDS011;63468;52.058;4.824;2023-04-27T12:16:28;12.95;;;11.40;;
74908;SDS011;63468;52.058;4.824;2023-04-27T12:18:53;12.23;;;10.45;;
74908;SDS011;63468;52.058;4.824;2023-04-27T12:21:18;12.85;;;11.50;;
74908;SDS011;63468;52.058;4.824;2023-04-27T12:23:44;12.52;;;10.88;;
74908;SDS011;63468;52.058;4.824;2023-04-27T12:26:10;11.50;;;10.30;;
74908;SDS011;63468;52.058;4.824;2023-04-27T12:28:35;13.50;;;11.00;;
74908;SDS011;63468;52.058;4.824;2023-04-27T12:31:04;12.25;;;10.95;;
74908;SDS011;63468;52.058;4.824;2023-04-27T12:33:29;11.82;;;10.57;;
74908;SDS011;63468;52.058;4.824;2023-04-27T12:35:55;13.35;;;10.43;;
74908;SDS011;63468;52.058;4.824;2023-04-27T12:38:20;12.60;;;10.57;;
74908;SDS011;63468;52.058;4.824;2023-04-27T12:40:46;11.73;;;10.38;;
74908;SDS011;63468;52.058;4.824;2023-04-27T12:43:12;11.60;;;10.38;;
74908;SDS011;63468;52.058;4.824;2023-04-27T12:45:37;11.50;;;9.70;;
74908;SDS011;63468;52.058;4.824;2023-04-27T12:48:03;11.40;;;10.23;;
74908;SDS011;63468;52.058;4.824;2023-04-27T12:50:29;11.20;;;9.82;;
74908;SDS011;63468;52.058;4.824;2023-04-27T12:52:57;11.73;;;9.98;;
74908;SDS011;63468;52.058;4.824;2023-04-27T12:55:22;11.93;;;10.57;;
74908;SDS011;63468;52.058;4.824;2023-04-27T12:57:48;10.98;;;9.65;;
74908;SDS011;63468;52.058;4.824;2023-04-27T13:00:13;12.38;;;9.77;;
74908;SDS011;63468;52.058;4.824;2023-04-27T13:02:39;16.73;;;10.88;;
74908;SDS011;63468;52.058;4.824;2023-04-27T13:05:05;11.27;;;9.35;;
74908;SDS011;63468;52.058;4.824;2023-04-27T13:07:31;12.15;;;10.20;;
74908;SDS011;63468;52.058;4.824;2023-04-27T13:09:57;11.95;;;9.90;;
74908;SDS011;63468;52.058;4.824;2023-04-27T13:12:22;13.05;;;10.23;;
74908;SDS011;63468;52.058;4.824;2023-04-27T13:14:48;14.82;;;10.13;;
74908;SDS011;63468;52.058;4.824;2023-04-27T13:17:13;12.57;;;10.57;;
74908;SDS011;63468;52.058;4.824;2023-04-27T13:19:39;14.27;;;9.88;;
74908;SDS011;63468;52.058;4.824;2023-04-27T13:22:04;12.43;;;10.27;;
74908;SDS011;63468;52.058;4.824;2023-04-27T13:24:31;11.93;;;10.15;;
74908;SDS011;63468;52.058;4.824;2023-04-27T13:26:57;13.88;;;10.60;;
74908;SDS011;63468;52.058;4.824;2023-04-27T13:29:22;13.43;;;10.80;;
74908;SDS011;63468;52.058;4.824;2023-04-27T13:31:49;15.07;;;11.13;;
74908;SDS011;63468;52.058;4.824;2023-04-27T13:34:15;15.23;;;11.60;;
74908;SDS011;63468;52.058;4.824;2023-04-27T13:36:40;12.32;;;10.73;;
74908;SDS011;63468;52.058;4.824;2023-04-27T13:39:05;11.73;;;10.02;;
74908;SDS011;63468;52.058;4.824;2023-04-27T13:41:31;11.68;;;10.30;;
74908;SDS011;63468;52.058;4.824;2023-04-27T13:43:57;11.95;;;10.75;;
74908;SDS011;63468;52.058;4.824;2023-04-27T13:46:23;11.73;;;10.45;;
74908;SDS011;63468;52.058;4.824;2023-04-27T13:48:48;13.43;;;10.45;;
74908;SDS011;63468;52.058;4.824;2023-04-27T13:51:13;11.82;;;10.23;;
74908;SDS011;63468;52.058;4.824;2023-04-27T13:53:39;14.40;;;10.70;;
74908;SDS011;63468;52.058;4.824;2023-04-27T13:56:04;11.77;;;10.50;;
74908;SDS011;63468;52.058;4.824;2023-04-27T13:58:30;14.48;;;10.43;;
74908;SDS011;63468;52.058;4.824;2023-04-27T14:00:56;11.48;;;10.27;;
74908;SDS011;63468;52.058;4.824;2023-04-27T14:03:21;14.48;;;10.63;;
74908;SDS011;63468;52.058;4.824;2023-04-27T14:05:47;16.08;;;10.45;;
74908;SDS011;63468;52.058;4.824;2023-04-27T14:08:14;11.10;;;10.00;;
74908;SDS011;63468;52.058;4.824;2023-04-27T14:10:40;12.43;;;9.77;;
74908;SDS011;63468;52.058;4.824;2023-04-27T14:13:05;11.73;;;10.35;;
74908;SDS011;63468;52.058;4.824;2023-04-27T14:15:31;13.68;;;10.57;;
74908;SDS011;63468;52.058;4.824;2023-04-27T14:18:01;12.02;;;10.55;;
74908;SDS011;63468;52.058;4.824;2023-04-27T14:20:27;13.15;;;10.50;;
74908;SDS011;63468;52.058;4.824;2023-04-27T14:22:53;13.93;;;10.25;;
74908;SDS011;63468;52.058;4.824;2023-04-27T14:25:18;16.00;;;10.43;;
74908;SDS011;63468;52.058;4.824;2023-04-27T14:27:43;13.00;;;10.20;;
74908;SDS011;63468;52.058;4.824;2023-04-27T14:30:09;11.75;;;10.55;;
74908;SDS011;63468;52.058;4.824;2023-04-27T14:32:34;11.38;;;9.88;;
74908;SDS011;63468;52.058;4.824;2023-04-27T14:35:00;13.10;;;10.50;;
74908;SDS011;63468;52.058;4.824;2023-04-27T14:37:25;11.73;;;10.10;;
74908;SDS011;63468;52.058;4.824;2023-04-27T14:39:51;14.63;;;10.90;;